Time;durP1;ratioP1;P1;durP2;ratioP2;P2;SDS_P1;SDS_P2;PMS_P1;PMS_P2;Temp;Humidity;BMP_temperature;BMP_pressure;BME280_temperature;BME280_humidity;BME280_pressure;Samples;Min_cycle;Max_cycle;Signal;HPM_P1;HPM_P2
2022/05/28 00:00:42;;;;;;;13.57;2.10;;;;;;;14.06;67.44;102316.38;6182149;23;20005;-63
2022/05/28 00:03:07;;;;;;;18.27;2.50;;;;;;;14.08;67.73;102319.88;6179232;23;20079;-63
2022/05/28 00:05:33;;;;;;;11.95;2.60;;;;;;;14.04;68.15;102312.91;6153366;23;20001;-64
2022/05/28 00:07:58;;;;;;;15.00;2.88;;;;;;;14.04;67.85;102315.56;6178017;23;20047;-64
2022/05/28 00:10:23;;;;;;;8.52;2.15;;;;;;;14.08;67.79;102314.56;6177753;23;20005;-64
2022/05/28 00:12:49;;;;;;;9.15;2.00;;;;;;;14.06;67.86;102320.81;6178618;23;20080;-65
2022/05/28 00:15:15;;;;;;;12.55;2.25;;;;;;;14.04;67.84;102307.59;6178888;23;20005;-65
2022/05/28 00:17:40;;;;;;;11.68;2.10;;;;;;;14.10;67.73;102302.16;6177169;23;20001;-65
2022/05/28 00:20:06;;;;;;;7.88;1.90;;;;;;;14.04;67.79;102304.97;6177518;23;20004;-63
2022/05/28 00:22:36;;;;;;;10.38;2.45;;;;;;;14.07;68.15;102306.66;6177714;23;20024;-64
2022/05/28 00:25:02;;;;;;;11.40;2.30;;;;;;;14.07;67.90;102307.53;6179092;23;20503;-65
2022/05/28 00:27:28;;;;;;;15.65;2.03;;;;;;;14.10;68.31;102301.28;6179169;23;20035;-65
2022/05/28 00:29:53;;;;;;;6.55;1.92;;;;;;;14.06;68.60;102299.63;6176736;23;20007;-64
2022/05/28 00:32:19;;;;;;;13.13;2.15;;;;;;;14.01;69.27;102302.38;6176249;23;20326;-66
2022/05/28 00:34:44;;;;;;;13.98;2.58;;;;;;;13.96;69.19;102301.63;6177209;23;20106;-62
2022/05/28 00:37:09;;;;;;;10.23;2.22;;;;;;;13.97;69.36;102300.72;6177830;23;20009;-63
2022/05/28 00:39:35;;;;;;;13.60;2.20;;;;;;;14.01;69.52;102300.63;6177015;23;20378;-62
2022/05/28 00:42:00;;;;;;;13.70;2.38;;;;;;;13.88;70.31;102312.44;6178595;23;20481;-64
2022/05/28 00:44:25;;;;;;;12.07;2.20;;;;;;;13.94;70.42;102308.75;6178409;23;20012;-63
2022/05/28 00:46:52;;;;;;;16.50;2.35;;;;;;;13.83;70.49;102311.66;6178046;23;20009;-65
2022/05/28 00:49:23;;;;;;;14.90;3.72;;;;;;;13.82;71.07;102316.06;6177545;23;20048;-63
2022/05/28 00:51:51;;;;;;;11.32;2.70;;;;;;;13.81;71.33;102311.69;6177643;23;20005;-63
2022/05/28 00:54:16;;;;;;;14.20;2.50;;;;;;;13.81;71.63;102314.34;6176620;23;20096;-62
2022/05/28 00:56:42;;;;;;;17.13;2.55;;;;;;;13.71;71.81;102313.69;6151023;23;20016;-63
2022/05/28 00:59:08;;;;;;;19.33;3.38;;;;;;;13.70;71.86;102308.44;6179809;23;20008;-65
2022/05/28 01:01:35;;;;;;;12.50;2.13;;;;;;;13.58;72.49;102307.78;6180536;23;20005;-62
2022/05/28 01:04:03;;;;;;;17.27;3.15;;;;;;;13.57;72.69;102311.34;6181193;23;20024;-62
2022/05/28 01:06:42;;;;;;;18.35;2.70;;;;;;;13.46;73.20;102308.91;6153904;23;20025;-63
2022/05/28 01:09:16;;;;;;;17.15;3.28;;;;;;;13.37;73.71;102307.34;6176875;23;20434;-62
2022/05/28 01:12:10;;;;;;;15.38;2.42;;;;;;;13.33;74.27;102305.69;6175278;22;20039;-62
2022/05/28 01:14:44;;;;;;;10.98;2.30;;;;;;;13.30;74.27;102304.88;6212386;23;20328;-62
2022/05/28 01:17:15;;;;;;;19.40;2.22;;;;;;;13.17;75.18;102305.16;6235997;23;20008;-62
2022/05/28 01:20:06;;;;;;;15.88;2.20;;;;;;;13.15;75.09;102306.94;6211517;23;20462;-62
2022/05/28 01:22:57;;;;;;;20.60;3.25;;;;;;;13.10;75.18;102306.19;6237760;23;20428;-64
2022/05/28 01:25:30;;;;;;;15.25;3.00;;;;;;;13.05;75.44;102300.97;6231540;23;20428;-61
2022/05/28 01:28:03;;;;;;;13.07;2.53;;;;;;;13.01;75.65;102304.59;6211397;23;20343;-61
2022/05/28 01:30:30;;;;;;;20.05;3.00;;;;;;;12.97;76.21;102305.53;6212757;23;20015;-60
2022/05/28 01:32:56;;;;;;;12.45;2.78;;;;;;;12.95;76.23;102304.72;6210061;23;20000;-61
2022/05/28 01:35:23;;;;;;;16.98;2.78;;;;;;;13.01;76.38;102304.59;6239290;23;20320;-61
2022/05/28 01:37:49;;;;;;;16.55;2.70;;;;;;;12.89;76.65;102301.28;6209942;23;20035;-61
2022/05/28 01:40:15;;;;;;;19.88;2.40;;;;;;;12.95;76.53;102299.44;6237854;23;20022;-61
2022/05/28 01:42:48;;;;;;;20.23;4.03;;;;;;;12.87;76.19;102291.66;6210088;23;20008;-62
2022/05/28 01:45:15;;;;;;;16.40;2.38;;;;;;;12.84;76.44;102294.34;6212029;23;20008;-62
2022/05/28 01:47:42;;;;;;;21.80;2.88;;;;;;;12.78;76.80;102295.34;6237156;23;20008;-61
2022/05/28 01:50:09;;;;;;;12.57;2.67;;;;;;;12.73;77.28;102290.16;6212556;23;20004;-62
2022/05/28 01:52:35;;;;;;;14.55;3.30;;;;;;;12.76;77.15;102289.22;6210788;23;20319;-66
2022/05/28 01:55:02;;;;;;;19.27;2.70;;;;;;;12.72;77.16;102296.34;6212642;23;20083;-63
2022/05/28 01:57:27;;;;;;;17.67;2.58;;;;;;;12.73;77.01;102294.56;6210477;23;20035;-61
2022/05/28 01:59:53;;;;;;;19.40;3.65;;;;;;;12.73;77.00;102299.84;6239387;23;20008;-61
2022/05/28 02:02:19;;;;;;;24.42;2.50;;;;;;;12.71;76.92;102301.66;6237175;23;20011;-61
2022/05/28 02:04:46;;;;;;;17.73;3.05;;;;;;;12.69;77.08;102292.88;6238253;23;20084;-61
2022/05/28 02:07:12;;;;;;;15.68;2.55;;;;;;;12.68;77.12;102296.44;6237636;23;20008;-60
2022/05/28 02:09:52;;;;;;;13.38;2.58;;;;;;;12.62;77.39;102293.00;6236060;23;20034;-62
2022/05/28 02:12:33;;;;;;;24.60;2.55;;;;;;;12.60;77.95;102293.94;6236582;23;20012;-62
2022/05/28 02:15:30;;;;;;;12.95;2.10;;;;;;;12.60;77.80;102300.09;6209255;23;20336;-61
2022/05/28 02:18:26;;;;;;;20.23;3.47;;;;;;;12.64;77.32;102307.06;6209335;23;20063;-62
2022/05/28 02:21:05;;;;;;;15.95;2.42;;;;;;;12.65;77.22;102292.09;6209539;23;20471;-61
2022/05/28 02:23:36;;;;;;;20.83;3.05;;;;;;;12.63;77.09;102296.53;6210446;23;19992;-62
2022/05/28 02:26:37;;;;;;;18.80;2.95;;;;;;;12.56;77.60;102301.06;6237148;23;20007;-65
2022/05/28 02:29:03;;;;;;;18.48;2.83;;;;;;;12.59;77.56;102290.44;6210058;23;20027;-62
2022/05/28 02:31:30;;;;;;;22.75;2.92;;;;;;;12.60;76.98;102293.94;6209855;23;20004;-62
2022/05/28 02:33:56;;;;;;;16.30;2.97;;;;;;;12.57;77.11;102284.28;6210576;23;20028;-61
2022/05/28 02:36:22;;;;;;;14.20;2.53;;;;;;;12.57;77.21;102284.28;6236870;23;19996;-62
2022/05/28 02:38:47;;;;;;;19.40;3.15;;;;;;;12.53;77.45;102287.03;6210863;23;20424;-65
2022/05/28 02:41:13;;;;;;;17.88;2.50;;;;;;;12.47;77.32;102291.53;6236673;23;20004;-63
2022/05/28 02:43:38;;;;;;;13.82;2.30;;;;;;;12.41;77.74;102288.13;6236548;23;20075;-61
2022/05/28 02:46:06;;;;;;;30.20;3.00;;;;;;;12.40;77.29;102281.09;6235451;23;20079;-61
2022/05/28 02:48:31;;;;;;;16.38;2.50;;;;;;;12.43;77.18;102288.97;6237462;23;19996;-64
2022/05/28 02:51:19;;;;;;;20.58;3.45;;;;;;;12.33;77.73;102281.22;6237506;23;20008;-62
2022/05/28 02:53:45;;;;;;;14.95;2.63;;;;;;;12.35;77.66;102284.72;6237912;23;20004;-62
2022/05/28 02:56:10;;;;;;;15.35;2.55;;;;;;;12.31;77.88;102285.63;6236724;23;20431;-62
2022/05/28 02:58:36;;;;;;;14.57;2.58;;;;;;;12.25;77.83;102294.56;6238704;23;20076;-61
2022/05/28 03:01:03;;;;;;;12.48;2.92;;;;;;;12.13;77.46;102285.06;6236464;23;20004;-65
2022/05/28 03:03:28;;;;;;;12.50;2.88;;;;;;;12.16;77.19;102292.06;6239029;23;20005;-61
2022/05/28 03:05:55;;;;;;;11.77;2.33;;;;;;;12.17;76.47;102290.31;6237860;23;20451;-61
2022/05/28 03:08:20;;;;;;;14.10;2.10;;;;;;;12.24;75.17;102286.66;6236729;23;20027;-61
2022/05/28 03:10:46;;;;;;;12.35;1.90;;;;;;;12.20;74.81;102288.50;6236131;23;20420;-61
2022/05/28 03:13:12;;;;;;;11.10;1.50;;;;;;;12.28;73.82;102293.63;6235717;23;20043;-62
2022/05/28 03:15:37;;;;;;;12.07;1.98;;;;;;;12.35;72.99;102292.63;6236952;23;20301;-62
2022/05/28 03:18:03;;;;;;;14.73;1.80;;;;;;;12.40;72.65;102291.69;6237105;23;20027;-63
2022/05/28 03:20:29;;;;;;;5.35;1.55;;;;;;;12.38;72.32;102294.34;6237675;23;20351;-61
2022/05/28 03:22:55;;;;;;;12.23;2.45;;;;;;;12.39;71.95;102296.06;6239552;23;20535;-62
2022/05/28 03:25:21;;;;;;;8.50;1.65;;;;;;;12.42;72.24;102303.06;6238116;23;19999;-62
2022/05/28 03:27:46;;;;;;;6.45;1.92;;;;;;;12.37;72.07;102308.44;6239901;23;20332;-61
2022/05/28 03:30:12;;;;;;;9.85;2.92;;;;;;;12.38;72.10;102300.47;6238301;23;19988;-61
2022/05/28 03:32:37;;;;;;;3.17;1.17;;;;;;;12.34;72.56;102305.88;6210385;23;20012;-61
2022/05/28 03:35:03;;;;;;;7.00;1.80;;;;;;;12.31;72.10;102301.50;6211211;23;20169;-61
2022/05/28 03:37:28;;;;;;;8.10;1.38;;;;;;;12.33;72.40;102310.28;6239364;23;20004;-62
2022/05/28 03:39:54;;;;;;;8.23;1.88;;;;;;;12.29;72.32;102313.88;6238750;23;20012;-63
2022/05/28 03:42:19;;;;;;;5.28;1.50;;;;;;;12.23;72.22;102308.69;6239464;23;20004;-62
2022/05/28 03:44:45;;;;;;;11.55;1.73;;;;;;;12.22;72.30;102307.81;6237251;23;20087;-62
2022/05/28 03:47:10;;;;;;;9.18;1.45;;;;;;;12.24;72.00;102307.78;6237112;23;20004;-62
2022/05/28 03:49:37;;;;;;;10.13;1.58;;;;;;;12.22;71.37;102310.47;6238887;23;20004;-60
2022/05/28 03:52:03;;;;;;;9.07;1.10;;;;;;;12.29;71.36;102313.00;6239097;23;20378;-62
2022/05/28 03:54:28;;;;;;;9.73;1.38;;;;;;;12.31;71.37;102309.44;6212104;23;20432;-61
2022/05/28 03:56:58;;;;;;;5.80;1.20;;;;;;;12.31;71.30;102305.94;6213193;23;20086;-62
2022/05/28 03:59:23;;;;;;;16.35;1.50;;;;;;;12.29;71.37;102316.53;6212079;23;20073;-61
2022/05/28 04:01:50;;;;;;;12.75;1.83;;;;;;;12.27;70.94;102313.03;6238161;23;20031;-61
2022/05/28 04:04:15;;;;;;;8.40;1.38;;;;;;;12.23;71.20;102319.28;6237979;23;20387;-61
2022/05/28 04:06:41;;;;;;;9.50;1.52;;;;;;;12.33;70.14;102312.03;6238113;23;20016;-61
2022/05/28 04:09:06;;;;;;;5.82;1.40;;;;;;;12.29;69.33;102316.53;6237605;23;20058;-62
2022/05/28 04:11:32;;;;;;;6.47;1.40;;;;;;;12.41;69.12;102325.13;6237582;23;20019;-63
2022/05/28 04:13:57;;;;;;;8.93;1.33;;;;;;;12.49;68.55;102321.44;6240371;23;20010;-61
2022/05/28 04:16:24;;;;;;;7.50;1.20;;;;;;;12.37;68.66;102319.91;6235440;23;20004;-62
2022/05/28 04:18:49;;;;;;;5.80;2.13;;;;;;;12.49;68.08;102328.50;6213179;23;20000;-61
2022/05/28 04:21:15;;;;;;;10.38;1.38;;;;;;;12.45;68.14;102321.53;6239129;23;20464;-62
2022/05/28 04:23:40;;;;;;;8.98;1.20;;;;;;;12.49;68.18;102328.50;6212688;23;20380;-61
2022/05/28 04:26:06;;;;;;;7.32;1.38;;;;;;;12.47;67.99;102333.84;6239307;23;20498;-62
2022/05/28 04:28:31;;;;;;;5.43;1.10;;;;;;;12.57;67.72;102331.88;6240182;23;20035;-62
2022/05/28 04:30:57;;;;;;;7.22;1.48;;;;;;;12.56;67.39;102327.50;6239018;23;20004;-61
2022/05/28 04:33:22;;;;;;;9.98;1.33;;;;;;;12.62;67.31;102330.00;6239601;23;20008;-61
2022/05/28 04:35:47;;;;;;;5.32;0.90;;;;;;;12.65;67.67;102334.41;6239365;23;20436;-62
2022/05/28 04:38:13;;;;;;;11.38;1.27;;;;;;;12.61;67.86;102336.22;6238595;23;20000;-62
2022/05/28 04:40:38;;;;;;;8.88;1.40;;;;;;;12.65;67.93;102339.69;6239349;23;20000;-64
2022/05/28 04:43:03;;;;;;;10.98;1.48;;;;;;;12.66;67.50;102336.13;6239428;23;20004;-62
2022/05/28 04:45:29;;;;;;;13.98;1.77;;;;;;;12.62;67.99;102334.44;6238368;23;20004;-62
2022/05/28 04:47:54;;;;;;;6.78;1.52;;;;;;;12.67;67.67;102329.06;6239145;23;20463;-62
2022/05/28 04:50:20;;;;;;;10.35;1.17;;;;;;;12.72;67.79;102328.09;6237571;23;20015;-62
2022/05/28 04:52:46;;;;;;;6.75;1.40;;;;;;;12.80;67.88;102333.22;6210461;23;20330;-62
2022/05/28 04:55:12;;;;;;;6.93;1.38;;;;;;;12.81;67.59;102340.25;6237993;23;20368;-62
2022/05/28 04:57:37;;;;;;;6.55;1.17;;;;;;;12.92;67.86;102337.41;6210628;23;20004;-61
2022/05/28 05:00:07;;;;;;;6.25;1.40;;;;;;;12.99;67.48;102340.78;6238375;23;20348;-63
2022/05/28 05:02:32;;;;;;;12.55;1.70;;;;;;;13.04;67.50;102336.28;6238303;23;20036;-62
2022/05/28 05:04:58;;;;;;;10.77;1.42;;;;;;;12.99;67.39;102343.44;6238484;23;20058;-62
2022/05/28 05:07:24;;;;;;;13.10;1.63;;;;;;;13.09;66.94;102341.47;6237566;23;20000;-63
2022/05/28 05:09:49;;;;;;;15.75;1.58;;;;;;;13.16;67.11;102348.41;6237161;23;20070;-63
2022/05/28 05:12:15;;;;;;;9.63;2.00;;;;;;;13.22;66.79;102344.75;6236879;23;20046;-61
2022/05/28 05:14:40;;;;;;;8.43;1.42;;;;;;;13.08;66.98;102343.25;6239404;23;20004;-62
2022/05/28 05:17:05;;;;;;;8.18;1.77;;;;;;;13.25;66.83;102340.25;6237830;23;19996;-63
2022/05/28 05:19:31;;;;;;;9.30;1.60;;;;;;;13.26;66.71;102342.00;6239865;23;20000;-62
2022/05/28 05:21:56;;;;;;;12.80;1.52;;;;;;;13.34;67.08;102348.91;6239756;23;20015;-62
2022/05/28 05:24:23;;;;;;;7.05;1.58;;;;;;;13.40;66.95;102354.94;6238707;23;20014;-61
2022/05/28 05:26:48;;;;;;;6.75;1.40;;;;;;;13.46;66.76;102353.06;6239194;23;20062;-61
2022/05/28 05:29:14;;;;;;;7.30;1.10;;;;;;;13.73;64.72;102361.34;6238809;23;19996;-63
2022/05/28 05:31:40;;;;;;;8.90;1.50;;;;;;;13.85;63.87;102353.09;6235968;23;20011;-61
2022/05/28 05:34:06;;;;;;;6.45;1.40;;;;;;;13.88;63.06;102360.13;6239198;23;20100;-62
2022/05/28 05:36:31;;;;;;;5.28;1.13;;;;;;;14.12;62.37;102360.44;6212435;23;20004;-63
2022/05/28 05:38:57;;;;;;;9.00;1.23;;;;;;;14.18;62.15;102354.94;6239060;23;20000;-62
2022/05/28 05:41:22;;;;;;;7.13;1.55;;;;;;;14.18;62.24;102362.06;6239012;23;20001;-61
2022/05/28 05:43:47;;;;;;;5.95;1.40;;;;;;;14.13;62.08;102365.69;6238723;23;20028;-62
2022/05/28 05:46:13;;;;;;;7.40;1.48;;;;;;;14.07;62.68;102368.50;6237322;23;20020;-61
2022/05/28 05:48:39;;;;;;;11.02;2.08;;;;;;;14.09;61.76;102373.75;6238617;23;20004;-62
2022/05/28 05:51:09;;;;;;;7.45;1.58;;;;;;;13.93;60.26;102371.47;6238732;23;20012;-62
2022/05/28 05:53:34;;;;;;;7.95;1.58;;;;;;;13.87;60.20;102371.59;6238298;23;20574;-63
2022/05/28 05:56:00;;;;;;;5.25;1.10;;;;;;;13.94;60.55;102370.53;6239267;23;20000;-61
2022/05/28 05:58:25;;;;;;;7.38;1.73;;;;;;;13.87;60.88;102364.53;6238821;23;20000;-60
2022/05/28 06:00:50;;;;;;;7.45;1.85;;;;;;;14.03;60.39;102366.84;6237011;23;20062;-63
2022/05/28 06:03:17;;;;;;;6.35;1.10;;;;;;;13.89;60.06;102378.63;6237562;23;20058;-65
2022/05/28 06:05:43;;;;;;;8.73;1.33;;;;;;;13.83;60.15;102369.94;6238638;23;20023;-62
2022/05/28 06:08:08;;;;;;;7.85;1.15;;;;;;;13.88;60.28;102376.88;6237555;23;20008;-62
2022/05/28 06:10:33;;;;;;;8.10;1.58;;;;;;;13.86;60.29;102384.00;6238099;23;20530;-62
2022/05/28 06:12:59;;;;;;;16.25;1.80;;;;;;;14.03;59.71;102380.94;6211959;23;20440;-62
2022/05/28 06:15:24;;;;;;;7.35;1.33;;;;;;;14.05;60.10;102382.69;6210410;23;20050;-62
2022/05/28 06:17:49;;;;;;;9.73;1.60;;;;;;;14.18;60.09;102373.50;6238216;23;20051;-60
2022/05/28 06:20:15;;;;;;;6.40;2.08;;;;;;;14.25;60.24;102379.56;6237837;23;19988;-64
2022/05/28 06:22:40;;;;;;;14.93;1.67;;;;;;;14.30;60.34;102382.94;6237892;23;20000;-62
2022/05/28 06:25:06;;;;;;;6.03;1.55;;;;;;;14.23;60.13;102390.19;6238129;23;19997;-62
2022/05/28 06:27:33;;;;;;;12.30;2.42;;;;;;;14.41;59.68;102395.94;6237345;23;20421;-64
2022/05/28 06:29:58;;;;;;;8.27;1.65;;;;;;;14.42;59.80;102386.22;6211286;23;20012;-61
2022/05/28 06:32:23;;;;;;;10.98;2.13;;;;;;;14.43;60.13;102385.28;6236595;23;20011;-61
2022/05/28 06:34:49;;;;;;;8.23;1.48;;;;;;;14.27;60.78;102383.03;6238663;23;20000;-62
2022/05/28 06:37:15;;;;;;;12.98;2.08;;;;;;;14.08;61.94;102394.09;6237223;23;20075;-64
2022/05/28 06:39:40;;;;;;;11.45;1.80;;;;;;;14.09;62.23;102395.81;6211943;23;20018;-63
2022/05/28 06:42:06;;;;;;;10.32;1.50;;;;;;;13.97;62.43;102396.13;6237098;23;20075;-63
2022/05/28 06:44:32;;;;;;;6.45;1.23;;;;;;;13.84;63.18;102393.75;6238390;23;19996;-63
2022/05/28 06:46:57;;;;;;;7.13;1.65;;;;;;;13.98;63.15;102395.22;6210060;23;20121;-61
2022/05/28 06:49:23;;;;;;;13.48;2.10;;;;;;;13.94;63.05;102402.34;6237285;23;20424;-62
2022/05/28 06:51:49;;;;;;;10.85;1.67;;;;;;;13.85;63.92;102400.78;6236395;23;20004;-61
2022/05/28 06:54:15;;;;;;;18.05;2.35;;;;;;;13.90;63.29;102406.84;6237809;23;20365;-63
2022/05/28 06:56:40;;;;;;;9.82;1.58;;;;;;;13.80;63.34;102400.03;6240348;23;20031;-60
2022/05/28 06:59:05;;;;;;;10.13;1.92;;;;;;;13.77;64.06;102400.09;6238597;23;20027;-63
2022/05/28 07:01:31;;;;;;;8.13;1.92;;;;;;;13.82;63.73;102400.84;6239550;23;20008;-63
2022/05/28 07:03:56;;;;;;;11.30;1.60;;;;;;;13.72;63.59;102401.97;6240182;23;20040;-62
2022/05/28 07:06:22;;;;;;;7.35;1.30;;;;;;;13.74;63.13;102405.47;6239203;23;20004;-63
2022/05/28 07:08:47;;;;;;;11.52;1.60;;;;;;;13.86;62.23;102413.16;6239848;23;19996;-61
2022/05/28 07:11:13;;;;;;;7.75;1.20;;;;;;;14.10;61.29;102408.19;6211211;23;20087;-62
2022/05/28 07:13:39;;;;;;;8.07;1.70;;;;;;;14.23;60.08;102402.56;6239071;23;20083;-62
2022/05/28 07:16:05;;;;;;;13.25;2.63;;;;;;;14.28;59.77;102406.00;6238734;23;20000;-62
2022/05/28 07:18:32;;;;;;;15.23;2.45;;;;;;;14.57;59.15;102408.81;6238905;23;20000;-61
2022/05/28 07:20:57;;;;;;;7.47;1.58;;;;;;;14.43;57.15;102411.81;6240301;23;20004;-62
2022/05/28 07:23:27;;;;;;;6.65;1.80;;;;;;;14.51;55.85;102412.50;6239257;23;20000;-62
2022/05/28 07:26:01;;;;;;;6.57;1.55;;;;;;;14.58;55.15;102416.75;6238991;23;20325;-62
2022/05/28 07:28:30;;;;;;;10.05;1.42;;;;;;;14.58;55.60;102419.41;6240103;23;20004;-63
2022/05/28 07:31:06;;;;;;;13.98;1.95;;;;;;;14.66;55.52;102416.56;6237711;23;20090;-62
2022/05/28 07:33:36;;;;;;;9.90;1.80;;;;;;;14.82;56.13;102417.03;6239304;23;20472;-63
2022/05/28 07:36:03;;;;;;;10.55;1.80;;;;;;;14.80;55.78;102416.19;6238719;23;20000;-63
2022/05/28 07:38:29;;;;;;;11.18;1.88;;;;;;;14.85;55.32;102422.28;6212585;23;20027;-62
2022/05/28 07:40:55;;;;;;;10.18;1.85;;;;;;;15.07;54.25;102405.75;6239672;23;20008;-62
2022/05/28 07:43:21;;;;;;;7.55;2.00;;;;;;;15.29;54.00;102413.97;6237590;23;20440;-61
2022/05/28 07:45:48;;;;;;;9.40;1.77;;;;;;;15.86;53.33;102407.88;6211874;23;20055;-62
2022/05/28 07:48:15;;;;;;;13.30;1.80;;;;;;;15.71;54.15;102414.53;6211553;23;20000;-62
2022/05/28 07:50:40;;;;;;;12.70;2.25;;;;;;;15.59;55.08;102415.75;6237552;23;20138;-62
2022/05/28 07:53:07;;;;;;;10.48;1.80;;;;;;;15.60;55.17;102420.19;6238958;23;20273;-63
2022/05/28 07:55:33;;;;;;;10.40;1.90;;;;;;;15.74;54.63;102402.97;6239759;23;20027;-64
2022/05/28 07:58:04;;;;;;;12.20;2.15;;;;;;;15.83;53.46;102421.25;6239110;23;20007;-63
2022/05/28 08:00:29;;;;;;;8.32;1.77;;;;;;;15.38;52.98;102418.13;6238734;23;20348;-63
2022/05/28 08:02:55;;;;;;;11.63;1.80;;;;;;;15.40;53.08;102413.66;6238114;23;20417;-62
2022/05/28 08:05:20;;;;;;;8.82;2.00;;;;;;;15.24;54.91;102426.53;6237762;23;20626;-62
2022/05/28 08:07:45;;;;;;;13.32;2.42;;;;;;;15.10;54.85;102416.28;6238932;23;20360;-62
2022/05/28 08:10:11;;;;;;;9.15;1.83;;;;;;;15.06;54.47;102419.94;6237826;23;20508;-62
2022/05/28 08:12:36;;;;;;;8.52;1.73;;;;;;;15.37;52.99;102413.75;6238094;23;20051;-61
2022/05/28 08:15:02;;;;;;;11.90;1.98;;;;;;;15.43;52.83;102401.19;6237464;23;20135;-61
2022/05/28 08:17:27;;;;;;;15.85;2.22;;;;;;;15.77;51.61;102400.16;6238909;23;20341;-60
2022/05/28 08:19:52;;;;;;;8.68;1.45;;;;;;;15.88;51.54;102403.38;6238899;23;20008;-61
2022/05/28 08:25:02;;;;;;;8.95;2.10;;;;;;;15.69;52.64;102412.84;6236718;23;20015;-64
2022/05/28 08:27:27;;;;;;;5.50;1.33;;;;;;;15.56;52.30;102429.13;6186863;23;20008;-61
2022/05/28 08:29:52;;;;;;;6.78;1.70;;;;;;;15.21;51.26;102423.97;6236763;23;20006;-61
2022/05/28 08:32:18;;;;;;;10.88;1.92;;;;;;;15.01;51.93;102424.50;6237827;23;20015;-60
2022/05/28 08:34:44;;;;;;;14.65;1.80;;;;;;;14.97;52.73;102420.19;6238959;23;20000;-61
2022/05/28 08:37:11;;;;;;;11.80;1.98;;;;;;;15.05;52.19;102423.50;6210337;23;20318;-61
2022/05/28 08:39:37;;;;;;;12.55;2.10;;;;;;;15.03;53.10;102414.72;6238423;23;20333;-61
2022/05/28 08:42:02;;;;;;;11.63;1.95;;;;;;;15.31;51.84;102419.25;6237069;23;20139;-62
2022/05/28 08:44:30;;;;;;;7.05;1.50;;;;;;;15.53;49.24;102421.25;6211806;23;20073;-62
2022/05/28 08:47:21;;;;;;;7.07;1.53;;;;;;;15.67;48.88;102426.16;6208848;23;20011;-60
2022/05/28 08:49:47;;;;;;;7.72;1.63;;;;;;;16.03;48.28;102411.81;6237195;23;20498;-60
2022/05/28 08:52:21;;;;;;;18.13;1.92;;;;;;;15.99;47.57;102413.72;6209865;23;20004;-63
2022/05/28 08:54:57;;;;;;;7.07;1.90;;;;;;;16.58;46.49;102410.91;6210073;23;20095;-61
2022/05/28 08:57:34;;;;;;;11.93;1.58;;;;;;;16.50;44.67;102420.94;6212651;23;20000;-60
2022/05/28 09:00:04;;;;;;;7.40;1.70;;;;;;;16.49;43.98;102414.75;6209424;23;20385;-60
2022/05/28 09:02:39;;;;;;;7.60;1.42;;;;;;;16.49;45.75;102414.75;6210606;23;20089;-60
2022/05/28 09:05:19;;;;;;;6.05;1.40;;;;;;;16.60;45.98;102416.16;6236203;23;20011;-61
2022/05/28 09:07:45;;;;;;;9.80;1.75;;;;;;;16.41;47.15;102412.34;6210612;23;20000;-61
2022/05/28 09:10:10;;;;;;;8.20;1.60;;;;;;;16.32;46.14;102415.34;6237385;23;20066;-60
2022/05/28 09:12:52;;;;;;;9.07;1.83;;;;;;;16.44;45.84;102422.03;6236055;23;20460;-61
2022/05/28 09:15:18;;;;;;;11.48;1.70;;;;;;;16.64;44.22;102429.31;6184372;23;20020;-61
2022/05/28 09:17:46;;;;;;;9.73;1.63;;;;;;;16.87;43.39;102419.69;6237970;23;20000;-63
2022/05/28 09:20:15;;;;;;;7.18;1.83;;;;;;;17.08;43.82;102422.53;6211107;23;20440;-60
2022/05/28 09:22:41;;;;;;;6.95;1.50;;;;;;;16.95;45.13;102421.19;6237239;23;20459;-62
2022/05/28 09:25:07;;;;;;;7.63;1.67;;;;;;;16.63;44.89;102432.03;6238357;23;19996;-60
2022/05/28 09:27:43;;;;;;;6.82;1.73;;;;;;;16.41;44.72;102420.31;6209703;23;20008;-61
2022/05/28 09:30:36;;;;;;;7.88;1.75;;;;;;;16.33;45.92;102417.06;6209121;23;20433;-61
2022/05/28 09:33:10;;;;;;;7.50;1.50;;;;;;;16.09;46.39;102427.56;6211342;23;20001;-64
2022/05/28 09:36:08;;;;;;;5.70;1.35;;;;;;;16.09;43.76;102422.25;6237138;23;20303;-61
2022/05/28 09:38:40;;;;;;;5.57;1.20;;;;;;;16.08;41.75;102427.63;6210878;23;20421;-62
2022/05/28 09:41:20;;;;;;;7.03;1.30;;;;;;;16.49;43.61;102425.38;6235834;23;20004;-61
2022/05/28 09:43:52;;;;;;;6.05;1.50;;;;;;;16.64;42.47;102431.97;6209212;23;20026;-61
2022/05/28 09:46:34;;;;;;;8.70;1.23;;;;;;;16.77;42.40;102419.09;6210358;23;20075;-61
2022/05/28 09:49:24;;;;;;;8.48;1.33;;;;;;;16.88;41.92;102416.06;6208921;23;20054;-61
2022/05/28 09:51:53;;;;;;;12.75;1.85;;;;;;;16.94;41.95;102420.31;6234877;23;20008;-60
2022/05/28 09:54:27;;;;;;;14.15;1.60;;;;;;;16.99;43.37;102407.72;6236654;23;20004;-62
2022/05/28 09:57:11;;;;;;;8.45;1.70;;;;;;;17.08;44.04;102409.19;6235939;23;20000;-61
2022/05/28 09:59:43;;;;;;;7.90;2.17;;;;;;;17.45;43.87;102416.75;6236475;23;20368;-61
2022/05/28 10:02:19;;;;;;;9.40;1.92;;;;;;;17.44;44.12;102413.22;6236901;23;20050;-60
2022/05/28 10:04:45;;;;;;;8.25;1.67;;;;;;;17.33;45.10;102410.94;6209066;23;20425;-61
2022/05/28 10:07:11;;;;;;;7.65;1.70;;;;;;;16.97;43.12;102419.31;6210430;23;20095;-60
2022/05/28 10:09:48;;;;;;;8.52;1.75;;;;;;;17.01;43.78;102415.66;6210345;23;20398;-60
2022/05/28 10:12:17;;;;;;;8.10;1.95;;;;;;;17.18;44.53;102407.06;6237213;23;20267;-61
2022/05/28 10:14:42;;;;;;;;;;;;;;;16.92;45.35;102417.69;6208968;23;20008;-61
2022/05/28 10:17:08;;;;;;;7.23;1.83;;;;;;;17.25;44.82;102410.38;6210057;23;20323;-62
2022/05/28 10:19:40;;;;;;;9.52;1.63;;;;;;;17.18;43.74;102417.72;6210931;23;20251;-61
2022/05/28 10:22:12;;;;;;;7.95;1.83;;;;;;;17.01;42.05;102418.31;6235195;23;20075;-61
2022/05/28 10:24:44;;;;;;;7.65;1.67;;;;;;;16.86;42.35;102417.06;6236801;23;20120;-60
2022/05/28 10:27:33;;;;;;;5.93;1.77;;;;;;;16.78;41.73;102409.34;6209866;23;20021;-62
2022/05/28 10:30:02;;;;;;;6.95;1.35;;;;;;;17.13;43.49;102415.22;6209635;23;20007;-62
2022/05/28 10:32:57;;;;;;;8.70;1.92;;;;;;;16.98;43.77;102408.63;6238006;23;20004;-60
2022/05/28 10:35:23;;;;;;;6.03;1.95;;;;;;;17.40;43.74;102400.94;6210135;23;20011;-62
2022/05/28 10:37:49;;;;;;;8.05;1.60;;;;;;;17.65;41.30;102403.53;6236048;23;20428;-62
2022/05/28 10:40:26;;;;;;;8.20;1.63;;;;;;;17.67;40.55;102401.66;6237435;23;20077;-63
2022/05/28 10:42:59;;;;;;;6.07;1.80;;;;;;;17.72;41.58;102408.59;6236020;23;20015;-61
2022/05/28 10:45:40;;;;;;;14.27;1.75;;;;;;;17.43;43.46;102419.47;6209130;23;20004;-61
2022/05/28 10:48:21;;;;;;;7.72;1.65;;;;;;;16.53;43.20;102418.19;6210665;23;20000;-61
2022/05/28 10:51:00;;;;;;;4.60;1.10;;;;;;;16.59;41.27;102419.75;6236384;23;20007;-60
2022/05/28 10:53:30;;;;;;;9.20;2.13;;;;;;;17.03;42.62;102412.00;6210427;23;20004;-63
2022/05/28 10:55:58;;;;;;;4.70;1.33;;;;;;;17.48;40.96;102413.94;6210634;23;20075;-60
2022/05/28 10:58:30;;;;;;;7.60;1.40;;;;;;;17.94;39.61;102411.28;6236309;23;20004;-62
2022/05/28 11:01:18;;;;;;;6.10;1.17;;;;;;;18.12;39.14;102406.19;6236497;23;20012;-62
2022/05/28 11:04:04;;;;;;;9.40;1.77;;;;;;;18.12;39.64;102411.53;6220077;23;20008;-61
2022/05/28 11:06:38;;;;;;;6.88;1.70;;;;;;;18.13;40.98;102406.13;6209499;23;20258;-60
2022/05/28 11:09:22;;;;;;;9.80;1.73;;;;;;;18.22;42.11;102412.00;6210761;23;20320;-60
2022/05/28 11:11:52;;;;;;;8.30;1.90;;;;;;;17.62;44.04;102421.44;6236048;23;20456;-61
2022/05/28 11:14:36;;;;;;;17.88;2.30;;;;;;;17.03;44.91;102417.31;6236703;23;20007;-61
2022/05/28 11:17:10;;;;;;;5.78;1.50;;;;;;;17.43;42.17;102401.69;6237023;23;20057;-66
2022/05/28 11:20:00;;;;;;;10.55;1.88;;;;;;;17.39;40.54;102405.41;6236244;23;20008;-61
2022/05/28 11:22:59;;;;;;;8.25;1.90;;;;;;;17.85;41.69;102411.66;6236482;23;20055;-61
2022/05/28 11:25:52;;;;;;;10.48;1.83;;;;;;;18.11;42.06;102402.63;6236164;23;20026;-61
2022/05/28 11:29:00;;;;;;;9.50;1.65;;;;;;;18.25;41.01;102387.84;6209447;23;20008;-62
2022/05/28 11:31:41;;;;;;;5.15;1.65;;;;;;;17.95;40.62;102386.38;6168704;23;20337;-61
2022/05/28 11:34:59;;;;;;;7.85;1.85;;;;;;;18.56;40.45;102400.78;6236283;23;20004;-64